sensor_id;sensor_type;location;lat;lon;timestamp;pressure;altitude;pressure_sealevel;temperature;humidity
10064;BME280;5071;52.360;13.134;2022-12-29T00:03:27;100218.44;;;7.61;90.57
10064;BME280;5071;52.360;13.134;2022-12-29T00:08:31;100218.44;;;7.59;90.37
10064;BME280;5071;52.360;13.134;2022-12-29T00:13:33;100211.31;;;7.67;89.41
10064;BME280;5071;52.360;13.134;2022-12-29T00:18:35;100208.56;;;7.79;88.18
10064;BME280;5071;52.360;13.134;2022-12-29T00:23:38;100204.13;;;7.83;87.60
10064;BME280;5071;52.360;13.134;2022-12-29T00:28:41;100198.75;;;7.91;86.90
10064;BME280;5071;52.360;13.134;2022-12-29T00:33:43;100190.78;;;7.95;86.12
10064;BME280;5071;52.360;13.134;2022-12-29T00:38:48;100191.59;;;8.04;85.46
10064;BME280;5071;52.360;13.134;2022-12-29T00:43:52;100183.75;;;7.96;85.81
10064;BME280;5071;52.360;13.134;2022-12-29T00:48:54;100176.59;;;8.03;85.04
10064;BME280;5071;52.360;13.134;2022-12-29T00:53:57;100184.53;;;8.04;85.01
10064;BME280;5071;52.360;13.134;2022-12-29T00:59:00;100175.72;;;8.04;84.70
10064;BME280;5071;52.360;13.134;2022-12-29T01:04:03;100180.00;;;8.12;84.11
10064;BME280;5071;52.360;13.134;2022-12-29T01:09:07;100181.84;;;8.07;84.59
10064;BME280;5071;52.360;13.134;2022-12-29T01:14:09;100175.66;;;8.08;84.09
10064;BME280;5071;52.360;13.134;2022-12-29T01:19:12;100178.22;;;8.16;84.01
10064;BME280;5071;52.360;13.134;2022-12-29T01:24:17;100176.41;;;8.21;83.55
10064;BME280;5071;52.360;13.134;2022-12-29T01:29:20;100181.63;;;8.26;83.42
10064;BME280;5071;52.360;13.134;2022-12-29T01:34:22;100189.69;;;8.16;84.44
10064;BME280;5071;52.360;13.134;2022-12-29T01:39:25;100171.19;;;8.13;84.47
10064;BME280;5071;52.360;13.134;2022-12-29T01:44:55;100165.09;;;8.07;85.11
10064;BME280;5071;52.360;13.134;2022-12-29T01:50:00;100157.22;;;8.05;85.31
10064;BME280;5071;52.360;13.134;2022-12-29T01:55:05;100134.41;;;7.96;84.29
10064;BME280;5071;52.360;13.134;2022-12-29T02:00:10;100152.88;;;7.98;84.59
10064;BME280;5071;52.360;13.134;2022-12-29T02:05:19;100140.31;;;8.18;82.78
10064;BME280;5071;52.360;13.134;2022-12-29T02:10:28;100143.72;;;8.25;81.93
10064;BME280;5071;52.360;13.134;2022-12-29T02:15:37;100140.03;;;8.40;80.56
10064;BME280;5071;52.360;13.134;2022-12-29T02:21:10;100132.09;;;8.40;80.61
10064;BME280;5071;52.360;13.134;2022-12-29T02:26:39;100130.22;;;8.48;79.83
10064;BME280;5071;52.360;13.134;2022-12-29T02:31:49;100128.16;;;8.72;78.44
10064;BME280;5071;52.360;13.134;2022-12-29T02:37:02;100112.25;;;8.75;78.24
10064;BME280;5071;52.360;13.134;2022-12-29T02:42:11;100105.00;;;8.86;77.60
10064;BME280;5071;52.360;13.134;2022-12-29T02:47:22;100119.16;;;8.84;77.34
10064;BME280;5071;52.360;13.134;2022-12-29T02:52:27;100110.19;;;8.92;76.97
10064;BME280;5071;52.360;13.134;2022-12-29T02:57:33;100106.59;;;8.97;76.94
10064;BME280;5071;52.360;13.134;2022-12-29T03:03:04;100090.53;;;9.09;76.56
10064;BME280;5071;52.360;13.134;2022-12-29T03:08:19;100083.47;;;9.08;76.96
10064;BME280;5071;52.360;13.134;2022-12-29T03:13:28;100075.31;;;9.22;76.46
10064;BME280;5071;52.360;13.134;2022-12-29T03:18:41;100070.91;;;9.21;76.56
10064;BME280;5071;52.360;13.134;2022-12-29T03:23:45;100069.91;;;9.26;76.58
10064;BME280;5071;52.360;13.134;2022-12-29T03:28:51;100065.56;;;9.24;77.17
10064;BME280;5071;52.360;13.134;2022-12-29T03:33:56;100070.72;;;9.31;76.80
10064;BME280;5071;52.360;13.134;2022-12-29T03:39:05;100053.97;;;9.31;77.00
10064;BME280;5071;52.360;13.134;2022-12-29T03:44:10;100061.94;;;9.29;76.58
10064;BME280;5071;52.360;13.134;2022-12-29T03:49:13;100072.44;;;9.32;76.99
10064;BME280;5071;52.360;13.134;2022-12-29T03:54:15;100081.91;;;9.46;76.71
10064;BME280;5071;52.360;13.134;2022-12-29T03:59:18;100070.63;;;9.34;76.97
10064;BME280;5071;52.360;13.134;2022-12-29T04:04:21;100066.88;;;9.48;76.94
10064;BME280;5071;52.360;13.134;2022-12-29T04:09:24;100066.78;;;9.52;76.58
10064;BME280;5071;52.360;13.134;2022-12-29T04:14:26;100075.84;;;9.41;77.26
10064;BME280;5071;52.360;13.134;2022-12-29T04:19:29;100078.31;;;9.50;76.89
10064;BME280;5071;52.360;13.134;2022-12-29T04:24:31;100072.13;;;9.49;76.94
10064;BME280;5071;52.360;13.134;2022-12-29T04:29:33;100050.91;;;9.51;76.90
10064;BME280;5071;52.360;13.134;2022-12-29T04:34:37;100049.22;;;9.48;76.94
10064;BME280;5071;52.360;13.134;2022-12-29T04:39:39;100061.47;;;9.54;77.21
10064;BME280;5071;52.360;13.134;2022-12-29T04:44:41;100064.97;;;9.56;77.22
10064;BME280;5071;52.360;13.134;2022-12-29T04:49:47;100054.38;;;9.54;77.57
10064;BME280;5071;52.360;13.134;2022-12-29T04:54:49;100058.78;;;9.56;77.62
10064;BME280;5071;52.360;13.134;2022-12-29T04:59:51;100056.72;;;9.70;77.06
10064;BME280;5071;52.360;13.134;2022-12-29T05:04:55;100051.50;;;9.67;77.96
10064;BME280;5071;52.360;13.134;2022-12-29T05:09:57;100020.31;;;9.80;77.40
10064;BME280;5071;52.360;13.134;2022-12-29T05:14:59;100026.38;;;9.85;77.52
10064;BME280;5071;52.360;13.134;2022-12-29T05:20:03;100019.22;;;9.90;77.67
10064;BME280;5071;52.360;13.134;2022-12-29T05:25:06;100015.50;;;9.99;77.21
10064;BME280;5071;52.360;13.134;2022-12-29T05:30:09;100019.81;;;10.04;77.23
10064;BME280;5071;52.360;13.134;2022-12-29T05:35:13;100001.78;;;10.19;76.55
10064;BME280;5071;52.360;13.134;2022-12-29T05:40:15;100017.69;;;10.19;76.68
10064;BME280;5071;52.360;13.134;2022-12-29T05:45:17;100016.66;;;10.26;76.35
10064;BME280;5071;52.360;13.134;2022-12-29T05:50:21;99996.31;;;10.26;76.42
10064;BME280;5071;52.360;13.134;2022-12-29T05:55:23;99992.78;;;10.26;76.52
10064;BME280;5071;52.360;13.134;2022-12-29T06:00:24;99989.13;;;10.33;76.51
10064;BME280;5071;52.360;13.134;2022-12-29T06:05:27;99988.31;;;10.28;76.84
10064;BME280;5071;52.360;13.134;2022-12-29T06:10:30;99986.31;;;10.39;76.43
10064;BME280;5071;52.360;13.134;2022-12-29T06:15:32;99989.06;;;10.36;76.81
10064;BME280;5071;52.360;13.134;2022-12-29T06:20:36;99990.72;;;10.40;76.88
10064;BME280;5071;52.360;13.134;2022-12-29T06:25:38;99996.09;;;10.37;77.10
10064;BME280;5071;52.360;13.134;2022-12-29T06:30:43;99990.94;;;10.29;77.77
10064;BME280;5071;52.360;13.134;2022-12-29T06:35:46;100004.44;;;10.19;78.11
10064;BME280;5071;52.360;13.134;2022-12-29T06:40:48;100002.78;;;10.15;78.30
10064;BME280;5071;52.360;13.134;2022-12-29T06:45:50;100014.34;;;10.10;78.47
10064;BME280;5071;52.360;13.134;2022-12-29T06:50:54;100020.47;;;10.14;78.42
10064;BME280;5071;52.360;13.134;2022-12-29T06:55:56;100018.97;;;10.02;78.93
10064;BME280;5071;52.360;13.134;2022-12-29T07:00:57;100013.78;;;9.96;79.12
10064;BME280;5071;52.360;13.134;2022-12-29T07:06:01;100025.66;;;9.78;79.75
10064;BME280;5071;52.360;13.134;2022-12-29T07:11:04;100041.63;;;9.73;80.22
10064;BME280;5071;52.360;13.134;2022-12-29T07:16:06;100032.91;;;9.68;80.41
10064;BME280;5071;52.360;13.134;2022-12-29T07:21:10;100040.25;;;9.56;81.24
10064;BME280;5071;52.360;13.134;2022-12-29T07:26:14;100034.00;;;9.58;81.38
10064;BME280;5071;52.360;13.134;2022-12-29T07:31:19;100020.75;;;9.58;81.71
10064;BME280;5071;52.360;13.134;2022-12-29T07:36:23;100027.72;;;9.62;81.36
10064;BME280;5071;52.360;13.134;2022-12-29T07:41:33;100013.59;;;9.63;81.79
10064;BME280;5071;52.360;13.134;2022-12-29T07:46:34;100025.75;;;9.73;81.39
10064;BME280;5071;52.360;13.134;2022-12-29T07:51:58;100022.94;;;9.81;81.46
10064;BME280;5071;52.360;13.134;2022-12-29T07:57:00;100021.06;;;9.86;81.15
10064;BME280;5071;52.360;13.134;2022-12-29T08:02:01;100012.16;;;9.89;81.17
10064;BME280;5071;52.360;13.134;2022-12-29T08:07:05;100009.25;;;10.01;80.60
10064;BME280;5071;52.360;13.134;2022-12-29T08:12:08;99980.91;;;10.05;80.33
10064;BME280;5071;52.360;13.134;2022-12-29T08:17:11;100016.09;;;10.11;80.34
10064;BME280;5071;52.360;13.134;2022-12-29T08:22:14;100010.72;;;10.15;79.66
10064;BME280;5071;52.360;13.134;2022-12-29T08:27:17;100011.69;;;10.12;80.17
10064;BME280;5071;52.360;13.134;2022-12-29T08:32:22;100003.69;;;10.14;79.95
10064;BME280;5071;52.360;13.134;2022-12-29T08:37:26;100007.28;;;10.09;79.92
10064;BME280;5071;52.360;13.134;2022-12-29T08:42:32;100016.06;;;10.13;79.86
10064;BME280;5071;52.360;13.134;2022-12-29T08:47:34;100005.16;;;10.27;79.34
10064;BME280;5071;52.360;13.134;2022-12-29T08:52:37;100015.59;;;10.36;79.09
10064;BME280;5071;52.360;13.134;2022-12-29T08:57:39;100003.16;;;10.38;79.00
10064;BME280;5071;52.360;13.134;2022-12-29T09:02:41;99995.84;;;10.48;78.60
10064;BME280;5071;52.360;13.134;2022-12-29T09:07:44;100006.13;;;10.62;78.28
10064;BME280;5071;52.360;13.134;2022-12-29T09:12:46;99985.94;;;10.55;78.62
10064;BME280;5071;52.360;13.134;2022-12-29T09:17:48;99986.94;;;10.50;78.58
10064;BME280;5071;52.360;13.134;2022-12-29T09:22:52;99995.22;;;10.74;77.96
10064;BME280;5071;52.360;13.134;2022-12-29T09:27:54;99988.59;;;11.23;75.91
10064;BME280;5071;52.360;13.134;2022-12-29T09:32:56;99989.22;;;11.33;75.24
10064;BME280;5071;52.360;13.134;2022-12-29T09:38:00;100002.19;;;11.45;75.57
10064;BME280;5071;52.360;13.134;2022-12-29T09:43:12;99983.13;;;11.61;74.76
10064;BME280;5071;52.360;13.134;2022-12-29T09:48:22;99985.56;;;12.00;74.00
10064;BME280;5071;52.360;13.134;2022-12-29T09:53:30;99977.59;;;12.28;72.42
10064;BME280;5071;52.360;13.134;2022-12-29T09:58:36;99994.09;;;12.39;72.47
10064;BME280;5071;52.360;13.134;2022-12-29T10:03:46;99985.91;;;13.49;68.86
10064;BME280;5071;52.360;13.134;2022-12-29T10:08:56;100000.47;;;15.61;60.39
10064;BME280;5071;52.360;13.134;2022-12-29T10:14:16;99995.38;;;15.36;61.19
10064;BME280;5071;52.360;13.134;2022-12-29T10:19:32;99986.38;;;15.78;59.75
10064;BME280;5071;52.360;13.134;2022-12-29T10:24:39;99993.75;;;14.47;64.61
10064;BME280;5071;52.360;13.134;2022-12-29T10:29:44;99977.81;;;14.67;63.11
10064;BME280;5071;52.360;13.134;2022-12-29T10:34:51;99990.09;;;13.06;69.65
10064;BME280;5071;52.360;13.134;2022-12-29T10:39:58;99984.44;;;12.63;71.55
10064;BME280;5071;52.360;13.134;2022-12-29T10:45:01;99975.78;;;12.57;71.99
10064;BME280;5071;52.360;13.134;2022-12-29T10:50:04;99978.00;;;12.42;72.42
10064;BME280;5071;52.360;13.134;2022-12-29T10:55:14;99971.88;;;12.40;72.28
10064;BME280;5071;52.360;13.134;2022-12-29T11:00:20;99972.88;;;12.36;71.97
10064;BME280;5071;52.360;13.134;2022-12-29T11:05:25;99988.13;;;12.31;73.13
10064;BME280;5071;52.360;13.134;2022-12-29T11:10:36;99989.63;;;12.12;76.00
10064;BME280;5071;52.360;13.134;2022-12-29T11:15:40;99995.94;;;11.78;78.33
10064;BME280;5071;52.360;13.134;2022-12-29T11:20:43;99997.28;;;11.61;80.44
10064;BME280;5071;52.360;13.134;2022-12-29T11:25:46;100017.78;;;11.25;84.63
10064;BME280;5071;52.360;13.134;2022-12-29T11:30:59;99999.41;;;10.83;88.66
10064;BME280;5071;52.360;13.134;2022-12-29T11:36:04;100003.69;;;10.53;92.40
10064;BME280;5071;52.360;13.134;2022-12-29T11:41:12;100008.47;;;10.38;95.22
10064;BME280;5071;52.360;13.134;2022-12-29T11:46:17;100014.06;;;10.23;97.78
10064;BME280;5071;52.360;13.134;2022-12-29T11:51:22;100031.06;;;10.16;99.73
10064;BME280;5071;52.360;13.134;2022-12-29T11:56:35;100014.56;;;10.01;100.00
10064;BME280;5071;52.360;13.134;2022-12-29T12:01:42;100023.81;;;9.82;100.00
10064;BME280;5071;52.360;13.134;2022-12-29T12:06:48;100023.25;;;9.66;100.00
10064;BME280;5071;52.360;13.134;2022-12-29T12:11:59;100010.03;;;9.64;98.28
10064;BME280;5071;52.360;13.134;2022-12-29T12:17:06;100025.03;;;9.65;96.32
10064;BME280;5071;52.360;13.134;2022-12-29T12:22:24;100007.38;;;9.64;96.96
10064;BME280;5071;52.360;13.134;2022-12-29T12:27:33;99998.63;;;9.61;96.85
10064;BME280;5071;52.360;13.134;2022-12-29T12:32:44;99995.94;;;9.62;96.62
10064;BME280;5071;52.360;13.134;2022-12-29T12:38:07;100014.47;;;9.64;97.10
10064;BME280;5071;52.360;13.134;2022-12-29T12:43:27;100000.19;;;9.71;96.50
10064;BME280;5071;52.360;13.134;2022-12-29T12:48:48;99987.53;;;9.85;96.15
10064;BME280;5071;52.360;13.134;2022-12-29T12:54:03;100002.09;;;10.06;95.93
10064;BME280;5071;52.360;13.134;2022-12-29T12:59:20;99999.72;;;10.35;95.22
10064;BME280;5071;52.360;13.134;2022-12-29T13:04:48;100007.94;;;10.60;93.34
10064;BME280;5071;52.360;13.134;2022-12-29T13:10:22;100013.06;;;10.67;92.99
10064;BME280;5071;52.360;13.134;2022-12-29T13:15:40;100014.72;;;10.72;92.67
10064;BME280;5071;52.360;13.134;2022-12-29T13:20:47;100010.69;;;10.57;93.35
10064;BME280;5071;52.360;13.134;2022-12-29T13:25:59;100010.22;;;10.38;94.48
10064;BME280;5071;52.360;13.134;2022-12-29T13:31:13;100006.84;;;10.29;94.89
10064;BME280;5071;52.360;13.134;2022-12-29T13:36:23;100015.13;;;10.16;95.59
10064;BME280;5071;52.360;13.134;2022-12-29T13:41:31;100010.88;;;10.08;96.62
10064;BME280;5071;52.360;13.134;2022-12-29T13:46:39;100011.84;;;10.04;96.90
10064;BME280;5071;52.360;13.134;2022-12-29T13:51:43;100020.84;;;9.97;97.82
10064;BME280;5071;52.360;13.134;2022-12-29T13:56:52;100015.72;;;9.88;97.81
10064;BME280;5071;52.360;13.134;2022-12-29T14:02:02;100008.09;;;9.72;98.35
10064;BME280;5071;52.360;13.134;2022-12-29T14:07:15;100008.28;;;9.63;98.97
10064;BME280;5071;52.360;13.134;2022-12-29T14:12:20;100020.72;;;9.61;98.93
10064;BME280;5071;52.360;13.134;2022-12-29T14:17:25;100017.94;;;9.66;97.95
10064;BME280;5071;52.360;13.134;2022-12-29T14:22:28;100014.91;;;9.86;95.48
10064;BME280;5071;52.360;13.134;2022-12-29T14:27:44;100022.72;;;9.92;94.42
10064;BME280;5071;52.360;13.134;2022-12-29T14:33:12;100033.34;;;9.90;93.93
10064;BME280;5071;52.360;13.134;2022-12-29T14:38:26;100034.50;;;9.77;93.75
10064;BME280;5071;52.360;13.134;2022-12-29T14:43:29;100045.72;;;9.90;92.21
10064;BME280;5071;52.360;13.134;2022-12-29T14:48:37;100050.19;;;9.88;92.53
10064;BME280;5071;52.360;13.134;2022-12-29T14:53:46;100065.31;;;9.83;91.79
10064;BME280;5071;52.360;13.134;2022-12-29T14:58:52;100056.63;;;9.76;91.22
10064;BME280;5071;52.360;13.134;2022-12-29T15:04:00;100075.25;;;9.71;91.67
10064;BME280;5071;52.360;13.134;2022-12-29T15:09:14;100092.84;;;9.76;90.63
10064;BME280;5071;52.360;13.134;2022-12-29T15:14:31;100099.13;;;9.70;90.33
10064;BME280;5071;52.360;13.134;2022-12-29T15:19:35;100100.03;;;9.70;89.13
10064;BME280;5071;52.360;13.134;2022-12-29T15:24:41;100101.94;;;9.61;88.77
10064;BME280;5071;52.360;13.134;2022-12-29T15:29:45;100106.56;;;9.51;88.79
10064;BME280;5071;52.360;13.134;2022-12-29T15:34:50;100111.03;;;9.47;88.20
10064;BME280;5071;52.360;13.134;2022-12-29T15:39:54;100112.78;;;9.50;87.42
10064;BME280;5071;52.360;13.134;2022-12-29T15:44:56;100115.50;;;9.44;87.04
10064;BME280;5071;52.360;13.134;2022-12-29T15:50:20;100127.69;;;9.54;85.85
10064;BME280;5071;52.360;13.134;2022-12-29T15:55:27;100135.31;;;9.72;83.51
10064;BME280;5071;52.360;13.134;2022-12-29T16:00:32;100142.44;;;9.70;83.04
10064;BME280;5071;52.360;13.134;2022-12-29T16:05:38;100157.13;;;9.87;81.35
10064;BME280;5071;52.360;13.134;2022-12-29T16:10:42;100154.59;;;9.81;80.94
10064;BME280;5071;52.360;13.134;2022-12-29T16:15:45;100168.50;;;9.92;79.53
10064;BME280;5071;52.360;13.134;2022-12-29T16:20:49;100164.13;;;9.91;78.73
10064;BME280;5071;52.360;13.134;2022-12-29T16:25:51;100168.38;;;9.98;77.71
10064;BME280;5071;52.360;13.134;2022-12-29T16:30:59;100170.16;;;9.99;76.84
10064;BME280;5071;52.360;13.134;2022-12-29T16:36:27;100176.28;;;10.01;76.63
10064;BME280;5071;52.360;13.134;2022-12-29T16:41:31;100184.06;;;10.10;75.35
10064;BME280;5071;52.360;13.134;2022-12-29T16:46:33;100193.00;;;10.06;74.91
10064;BME280;5071;52.360;13.134;2022-12-29T16:51:37;100188.78;;;9.95;75.13
10064;BME280;5071;52.360;13.134;2022-12-29T16:56:44;100191.47;;;9.93;75.27
10064;BME280;5071;52.360;13.134;2022-12-29T17:01:47;100199.44;;;9.93;74.97
10064;BME280;5071;52.360;13.134;2022-12-29T17:06:51;100207.28;;;9.99;75.47
10064;BME280;5071;52.360;13.134;2022-12-29T17:11:54;100212.41;;;10.08;75.45
10064;BME280;5071;52.360;13.134;2022-12-29T17:17:15;100214.13;;;10.09;75.88
10064;BME280;5071;52.360;13.134;2022-12-29T17:22:22;100208.13;;;10.00;76.77
10064;BME280;5071;52.360;13.134;2022-12-29T17:27:28;100213.47;;;9.98;75.82
10064;BME280;5071;52.360;13.134;2022-12-29T17:32:32;100215.72;;;10.20;74.11
10064;BME280;5071;52.360;13.134;2022-12-29T17:37:36;100221.16;;;10.14;74.41
10064;BME280;5071;52.360;13.134;2022-12-29T17:42:43;100220.69;;;9.90;75.24
10064;BME280;5071;52.360;13.134;2022-12-29T17:47:46;100222.84;;;9.66;75.84
10064;BME280;5071;52.360;13.134;2022-12-29T17:52:51;100223.88;;;9.59;76.09
10064;BME280;5071;52.360;13.134;2022-12-29T17:58:00;100224.22;;;9.38;76.59
10064;BME280;5071;52.360;13.134;2022-12-29T18:03:02;100218.50;;;9.06;77.68
10064;BME280;5071;52.360;13.134;2022-12-29T18:08:09;100229.59;;;8.71;79.13
10064;BME280;5071;52.360;13.134;2022-12-29T18:13:18;100235.19;;;8.46;80.76
10064;BME280;5071;52.360;13.134;2022-12-29T18:18:22;100237.94;;;8.34;81.43
10064;BME280;5071;52.360;13.134;2022-12-29T18:23:27;100248.59;;;8.28;81.92
10064;BME280;5071;52.360;13.134;2022-12-29T18:28:29;100243.31;;;8.28;81.91
10064;BME280;5071;52.360;13.134;2022-12-29T18:33:32;100250.25;;;8.35;81.92
10064;BME280;5071;52.360;13.134;2022-12-29T18:38:35;100249.38;;;8.34;81.42
10064;BME280;5071;52.360;13.134;2022-12-29T18:43:38;100255.63;;;8.27;82.46
10064;BME280;5071;52.360;13.134;2022-12-29T18:48:40;100249.41;;;8.33;82.70
10064;BME280;5071;52.360;13.134;2022-12-29T18:53:44;100252.16;;;8.24;83.32
10064;BME280;5071;52.360;13.134;2022-12-29T18:58:46;100253.84;;;8.31;83.38
10064;BME280;5071;52.360;13.134;2022-12-29T19:03:48;100263.66;;;8.21;84.00
10064;BME280;5071;52.360;13.134;2022-12-29T19:08:51;100258.53;;;8.06;85.26
10064;BME280;5071;52.360;13.134;2022-12-29T19:13:53;100261.25;;;7.98;86.56
10064;BME280;5071;52.360;13.134;2022-12-29T19:18:55;100265.69;;;7.93;87.05
10064;BME280;5071;52.360;13.134;2022-12-29T19:24:12;100270.88;;;8.01;87.61
10064;BME280;5071;52.360;13.134;2022-12-29T19:29:14;100276.97;;;8.09;87.55
10064;BME280;5071;52.360;13.134;2022-12-29T19:34:16;100283.03;;;8.20;87.42
10064;BME280;5071;52.360;13.134;2022-12-29T19:39:19;100286.41;;;8.37;86.52
10064;BME280;5071;52.360;13.134;2022-12-29T19:44:22;100290.78;;;8.38;87.06
10064;BME280;5071;52.360;13.134;2022-12-29T19:49:24;100296.97;;;8.36;87.19
10064;BME280;5071;52.360;13.134;2022-12-29T19:54:28;100292.63;;;8.32;87.12
10064;BME280;5071;52.360;13.134;2022-12-29T19:59:29;100294.34;;;8.36;87.52
10064;BME280;5071;52.360;13.134;2022-12-29T20:04:31;100300.41;;;8.50;86.77
10064;BME280;5071;52.360;13.134;2022-12-29T20:09:35;100294.00;;;8.70;85.64
10064;BME280;5071;52.360;13.134;2022-12-29T20:14:37;100291.22;;;8.81;84.39
10064;BME280;5071;52.360;13.134;2022-12-29T20:19:40;100283.09;;;8.93;83.44
10064;BME280;5071;52.360;13.134;2022-12-29T20:24:43;100285.78;;;8.91;83.11
10064;BME280;5071;52.360;13.134;2022-12-29T20:29:51;100300.78;;;8.89;83.23
10064;BME280;5071;52.360;13.134;2022-12-29T20:34:53;100294.59;;;8.93;82.84
10064;BME280;5071;52.360;13.134;2022-12-29T20:39:57;100303.38;;;8.95;82.68
10064;BME280;5071;52.360;13.134;2022-12-29T20:44:59;100289.44;;;8.81;83.05
10064;BME280;5071;52.360;13.134;2022-12-29T20:50:01;100293.06;;;8.72;83.61
10064;BME280;5071;52.360;13.134;2022-12-29T20:55:05;100297.69;;;8.55;84.62
10064;BME280;5071;52.360;13.134;2022-12-29T21:00:08;100306.63;;;8.40;85.54
10064;BME280;5071;52.360;13.134;2022-12-29T21:05:10;100281.06;;;8.45;85.39
10064;BME280;5071;52.360;13.134;2022-12-29T21:10:26;100290.56;;;8.62;84.28
10064;BME280;5071;52.360;13.134;2022-12-29T21:15:30;100295.81;;;8.65;83.69
10064;BME280;5071;52.360;13.134;2022-12-29T21:20:32;100290.63;;;8.55;82.84
10064;BME280;5071;52.360;13.134;2022-12-29T21:25:45;100303.00;;;8.53;82.13
10064;BME280;5071;52.360;13.134;2022-12-29T21:30:49;100309.44;;;8.26;83.33
10064;BME280;5071;52.360;13.134;2022-12-29T21:35:52;100295.47;;;8.12;83.45
10064;BME280;5071;52.360;13.134;2022-12-29T21:41:03;100318.31;;;8.19;82.71
10064;BME280;5071;52.360;13.134;2022-12-29T21:46:06;100325.31;;;8.22;81.94
10064;BME280;5071;52.360;13.134;2022-12-29T21:51:12;100314.81;;;8.17;81.99
10064;BME280;5071;52.360;13.134;2022-12-29T21:56:18;100331.59;;;8.08;81.82
10064;BME280;5071;52.360;13.134;2022-12-29T22:01:21;100337.03;;;7.96;82.62
10064;BME280;5071;52.360;13.134;2022-12-29T22:06:25;100337.88;;;7.98;82.42
10064;BME280;5071;52.360;13.134;2022-12-29T22:11:30;100340.59;;;7.86;82.65
10064;BME280;5071;52.360;13.134;2022-12-29T22:16:34;100339.78;;;7.79;82.95
10064;BME280;5071;52.360;13.134;2022-12-29T22:21:40;100340.72;;;7.70;83.14
10064;BME280;5071;52.360;13.134;2022-12-29T22:26:44;100346.91;;;7.68;83.42
10064;BME280;5071;52.360;13.134;2022-12-29T22:31:46;100340.84;;;7.53;83.66
10064;BME280;5071;52.360;13.134;2022-12-29T22:36:49;100338.16;;;7.61;82.93
10064;BME280;5071;52.360;13.134;2022-12-29T22:41:52;100349.50;;;7.75;81.61
10064;BME280;5071;52.360;13.134;2022-12-29T22:46:54;100363.59;;;7.77;81.72
10064;BME280;5071;52.360;13.134;2022-12-29T22:51:57;100366.22;;;7.73;81.51
10064;BME280;5071;52.360;13.134;2022-12-29T22:57:00;100372.44;;;7.67;82.10
10064;BME280;5071;52.360;13.134;2022-12-29T23:02:02;100383.97;;;7.52;82.12
10064;BME280;5071;52.360;13.134;2022-12-29T23:07:04;100389.34;;;7.42;82.64
10064;BME280;5071;52.360;13.134;2022-12-29T23:12:08;100384.06;;;7.42;82.76
10064;BME280;5071;52.360;13.134;2022-12-29T23:17:10;100388.44;;;7.43;82.49
10064;BME280;5071;52.360;13.134;2022-12-29T23:22:12;100393.75;;;7.33;82.37
10064;BME280;5071;52.360;13.134;2022-12-29T23:27:15;100395.53;;;7.34;82.14
10064;BME280;5071;52.360;13.134;2022-12-29T23:32:17;100397.25;;;7.35;81.91
10064;BME280;5071;52.360;13.134;2022-12-29T23:37:19;100395.44;;;7.51;81.03
10064;BME280;5071;52.360;13.134;2022-12-29T23:42:22;100406.81;;;7.58;80.65
10064;BME280;5071;52.360;13.134;2022-12-29T23:47:24;100409.47;;;7.58;80.21
10064;BME280;5071;52.360;13.134;2022-12-29T23:52:26;100416.53;;;7.56;80.37
10064;BME280;5071;52.360;13.134;2022-12-29T23:57:30;100421.81;;;7.59;79.92
